Time;durP1;ratioP1;P1;durP2;ratioP2;P2;SDS_P1;SDS_P2;PMS_P1;PMS_P2;Temp;Humidity;BMP_temperature;BMP_pressure;BME280_temperature;BME280_humidity;BME280_pressure;Samples;Min_cycle;Max_cycle;Signal;HPM_P1;HPM_P2
2022/11/07 00:01:38;;;;;;;34.38;21.52;;;;;;;7.58;100.00;100517.91;1740486;81;21464;-66
2022/11/07 00:04:05;;;;;;;31.65;20.52;;;;;;;7.58;100.00;100521.83;1739181;81;21734;-65
2022/11/07 00:06:32;;;;;;;35.98;21.27;;;;;;;7.59;100.00;100521.81;1792664;78;21482;-66
2022/11/07 00:08:59;;;;;;;31.62;20.55;;;;;;;7.61;100.00;100521.79;1781719;78;21500;-65
2022/11/07 00:11:26;;;;;;;36.68;21.97;;;;;;;7.60;100.00;100520.05;1799265;78;21017;-66
2022/11/07 00:13:54;;;;;;;32.93;21.70;;;;;;;7.63;100.00;100516.50;1768660;79;21026;-66
2022/11/07 00:16:25;;;;;;;34.05;22.20;;;;;;;7.65;100.00;100521.27;1811145;77;21406;-66
2022/11/07 00:18:52;;;;;;;32.75;22.17;;;;;;;7.65;100.00;100517.34;1802207;78;21529;-66
2022/11/07 00:21:21;;;;;;;33.50;22.32;;;;;;;7.65;100.00;100512.98;1805274;78;21451;-67
2022/11/07 00:23:48;;;;;;;32.35;20.82;;;;;;;7.66;100.00;100512.54;1802656;77;21507;-66
2022/11/07 00:26:14;;;;;;;35.92;21.02;;;;;;;7.63;100.00;100513.88;1765263;80;21474;-66
2022/11/07 00:28:43;;;;;;;32.55;22.00;;;;;;;7.63;100.00;100515.20;1763546;79;21575;-65
2022/11/07 00:31:12;;;;;;;35.28;22.10;;;;;;;7.62;100.00;100506.94;1805252;78;21686;-66
2022/11/07 00:33:40;;;;;;;32.30;22.00;;;;;;;7.65;100.00;100511.69;1786745;78;21573;-66
2022/11/07 00:36:11;;;;;;;34.83;23.02;;;;;;;7.65;100.00;100503.83;1803131;78;21678;-66
2022/11/07 00:38:39;;;;;;;37.08;23.10;;;;;;;7.66;100.00;100505.54;1800254;78;21013;-66
2022/11/07 00:41:08;;;;;;;30.12;21.52;;;;;;;7.70;100.00;100505.05;1762999;79;21470;-66
2022/11/07 00:43:35;;;;;;;33.23;21.42;;;;;;;7.69;100.00;100497.64;1797760;78;21776;-66
2022/11/07 00:46:04;;;;;;;33.35;21.48;;;;;;;7.67;100.00;100494.20;1808153;78;25725;-65
2022/11/07 00:48:32;;;;;;;26.90;19.98;;;;;;;7.66;100.00;100496.83;1770867;79;21458;-67
2022/11/07 00:51:15;;;;;;;31.00;20.68;;;;;;;7.66;100.00;100495.07;1763969;80;20986;-66
2022/11/07 00:53:42;;;;;;;31.97;21.50;;;;;;;7.69;100.00;100489.80;1808329;78;21587;-65
2022/11/07 00:56:11;;;;;;;33.23;20.57;;;;;;;7.72;100.00;100495.41;1797175;78;21708;-65
2022/11/07 00:58:39;;;;;;;33.13;21.48;;;;;;;7.70;100.00;100491.50;1805497;78;21494;-65
2022/11/07 01:01:15;;;;;;;36.25;20.08;;;;;;;7.69;100.00;100495.03;1768802;80;21517;-64
2022/11/07 01:06:31;;;;;;;33.90;21.25;;;;;;;7.68;100.00;100491.13;1761202;79;21536;-65
2022/11/07 01:08:57;;;;;;;;;;;;;;;7.68;100.00;100489.81;1778460;79;22068;-65
2022/11/07 01:11:25;;;;;;;29.05;19.50;;;;;;;7.64;100.00;100490.31;1766496;80;20426;-66
2022/11/07 01:13:57;;;;;;;28.27;19.32;;;;;;;7.67;100.00;100486.34;1767614;80;21041;-65
2022/11/07 01:16:24;;;;;;;29.67;20.30;;;;;;;7.69;100.00;100478.47;1795603;78;21525;-65
2022/11/07 01:18:51;;;;;;;30.82;21.30;;;;;;;7.71;100.00;100478.84;1800566;78;27006;-65
2022/11/07 01:21:20;;;;;;;30.55;20.70;;;;;;;7.76;100.00;100474.83;1803164;78;21395;-65
2022/11/07 01:23:47;;;;;;;33.67;20.85;;;;;;;7.78;100.00;100459.98;1756823;80;21510;-65
2022/11/07 01:26:14;;;;;;;28.47;19.42;;;;;;;7.79;100.00;100464.31;1797030;78;21552;-65
2022/11/07 01:28:41;;;;;;;32.75;21.37;;;;;;;7.79;100.00;100466.92;1771907;79;21493;-65
2022/11/07 01:31:10;;;;;;;28.37;21.03;;;;;;;7.82;100.00;100465.99;1767731;80;20990;-65
2022/11/07 01:33:37;;;;;;;30.35;20.60;;;;;;;7.80;100.00;100466.05;1791827;77;21765;-65
2022/11/07 01:36:09;;;;;;;26.62;19.62;;;;;;;7.79;100.00;100461.23;1772937;80;21506;-65
2022/11/07 01:38:42;;;;;;;30.88;21.25;;;;;;;7.80;100.00;100463.43;1800897;78;21637;-66
2022/11/07 01:41:20;;;;;;;35.98;20.85;;;;;;;7.83;100.00;100463.81;1799073;78;21497;-65
2022/11/07 01:44:11;;;;;;;29.92;20.08;;;;;;;7.85;100.00;100464.19;1766204;80;21022;-65
2022/11/07 01:46:43;;;;;;;27.10;19.55;;;;;;;7.89;100.00;100458.45;1729666;82;21008;-65
2022/11/07 01:49:20;;;;;;;26.75;19.55;;;;;;;7.91;100.00;100453.63;1809204;78;21045;-65
2022/11/07 01:52:17;;;;;;;28.15;20.25;;;;;;;7.94;100.00;100448.30;1768848;80;21515;-64
2022/11/07 01:54:49;;;;;;;30.15;20.95;;;;;;;7.95;100.00;100442.19;1767189;80;21078;-65
2022/11/07 01:57:26;;;;;;;33.67;21.57;;;;;;;7.94;100.00;100443.52;1782417;78;21543;-65
2022/11/07 01:59:53;;;;;;;28.23;19.92;;;;;;;7.94;100.00;100444.83;1762253;79;21757;-65
2022/11/07 02:02:20;;;;;;;30.88;20.80;;;;;;;7.97;100.00;100439.55;1744780;80;21570;-64
2022/11/07 02:04:46;;;;;;;28.47;20.60;;;;;;;7.98;100.00;100433.40;1673146;81;21553;-64
2022/11/07 02:07:19;;;;;;;26.05;19.60;;;;;;;8.01;100.00;100433.80;1738152;81;21577;-65
2022/11/07 02:09:46;;;;;;;29.92;19.25;;;;;;;8.03;100.00;100426.78;1744287;81;21684;-65
2022/11/07 02:12:13;;;;;;;26.68;19.70;;;;;;;8.04;100.00;100427.17;1737052;80;21852;-65
2022/11/07 02:14:43;;;;;;;25.35;19.15;;;;;;;8.02;100.00;100429.83;1746408;81;21435;-65
2022/11/07 02:17:10;;;;;;;29.75;20.25;;;;;;;8.02;100.00;100424.59;1744469;80;21457;-65
2022/11/07 02:19:49;;;;;;;29.32;20.55;;;;;;;8.04;100.00;100423.25;1779092;78;21498;-70
2022/11/07 02:22:25;;;;;;;28.83;20.25;;;;;;;8.03;100.00;100425.02;1804348;78;21580;-65
2022/11/07 02:24:54;;;;;;;25.70;19.75;;;;;;;8.02;100.00;100428.52;1762907;79;21940;-66
2022/11/07 02:27:24;;;;;;;27.15;20.02;;;;;;;8.03;100.00;100424.16;1768817;79;21505;-65
2022/11/07 02:30:06;;;;;;;26.80;19.80;;;;;;;8.01;100.00;100420.25;1808875;78;21541;-68
2022/11/07 02:32:33;;;;;;;33.48;20.23;;;;;;;8.02;100.00;100425.04;1761060;80;21445;-65
2022/11/07 02:35:02;;;;;;;24.95;17.85;;;;;;;8.03;100.00;100422.39;1807907;78;21398;-65
2022/11/07 02:37:33;;;;;;;26.70;20.72;;;;;;;8.05;100.00;100419.30;1808038;77;21493;-65
2022/11/07 02:40:00;;;;;;;28.42;20.68;;;;;;;8.08;100.00;100419.67;1756128;80;21522;-65
2022/11/07 02:42:42;;;;;;;27.62;18.67;;;;;;;8.06;100.00;100412.30;1771154;80;21046;-65
2022/11/07 02:44:55;;;;;;;27.32;18.60;;;;;;;8.02;100.00;100412.80;1755470;80;21488;-65
2022/11/07 02:47:22;;;;;;;27.93;19.80;;;;;;;8.03;100.00;100414.54;1724717;81;21069;-65
2022/11/07 02:49:49;;;;;;;25.80;18.80;;;;;;;8.00;100.00;100404.11;1731302;81;21882;-66
2022/11/07 02:52:16;;;;;;;24.55;19.12;;;;;;;7.96;100.00;100408.55;1748607;81;21517;-65
2022/11/07 02:54:42;;;;;;;29.48;20.57;;;;;;;7.98;100.00;100413.76;1740833;80;20966;-65
2022/11/07 02:57:09;;;;;;;27.27;18.57;;;;;;;7.98;100.00;100409.83;1740768;81;21490;-65
2022/11/07 02:59:36;;;;;;;26.80;18.85;;;;;;;8.01;100.00;100407.16;1768582;80;21470;-64
2022/11/07 03:02:03;;;;;;;27.35;19.55;;;;;;;8.01;100.00;100406.31;1769327;80;21856;-65
2022/11/07 03:04:31;;;;;;;27.22;19.20;;;;;;;7.99;100.00;100403.72;1772112;79;21580;-65
2022/11/07 03:06:57;;;;;;;29.32;19.67;;;;;;;8.01;100.00;100407.62;1758954;80;21525;-65
2022/11/07 03:09:24;;;;;;;30.08;19.62;;;;;;;8.02;100.00;100408.88;1790510;77;21553;-65
2022/11/07 03:11:52;;;;;;;27.95;19.37;;;;;;;8.03;100.00;100418.92;1763762;79;21129;-65
2022/11/07 03:14:18;;;;;;;25.70;18.92;;;;;;;8.06;100.00;100421.46;1751641;80;21779;-65
2022/11/07 03:16:45;;;;;;;27.87;18.30;;;;;;;8.10;100.00;100413.95;1741660;80;21588;-65
2022/11/07 03:19:12;;;;;;;26.93;19.12;;;;;;;8.10;100.00;100416.57;1742427;80;21529;-65
2022/11/07 03:21:38;;;;;;;29.27;19.77;;;;;;;8.10;100.00;100426.63;1741620;80;21500;-65
2022/11/07 03:24:05;;;;;;;26.10;18.48;;;;;;;8.13;100.00;100424.38;1748168;81;21422;-69
2022/11/07 03:26:32;;;;;;;26.90;18.75;;;;;;;8.14;100.00;100419.57;1764512;79;21729;-65
2022/11/07 03:28:58;;;;;;;23.38;18.30;;;;;;;8.13;100.00;100423.92;1763651;80;21498;-65
2022/11/07 03:31:25;;;;;;;25.03;17.97;;;;;;;8.08;100.00;100420.98;1794944;77;21592;-65
2022/11/07 03:33:52;;;;;;;23.83;17.85;;;;;;;8.04;100.00;100425.41;1754634;80;21635;-65
2022/11/07 03:36:18;;;;;;;25.60;18.37;;;;;;;8.06;100.00;100424.97;1754840;80;21521;-65
2022/11/07 03:38:45;;;;;;;24.35;18.10;;;;;;;8.12;100.00;100417.43;1799957;77;21781;-65
2022/11/07 03:41:16;;;;;;;21.97;17.65;;;;;;;8.16;100.00;100419.94;1789367;78;21412;-65
2022/11/07 03:43:41;;;;;;;25.45;17.70;;;;;;;8.16;100.00;100414.70;1792469;78;21482;-65
2022/11/07 06:34:07;;;;;;;21.15;17.25;;;;;;;5.91;100.00;100462.19;1842890;74;26736;-69
2022/11/07 06:36:34;;;;;;;21.07;15.50;;;;;;;6.19;100.00;100471.47;1810457;76;21550;-66
2022/11/07 06:39:36;;;;;;;18.42;14.95;;;;;;;6.38;100.00;100460.80;1811186;76;22101;-62
2022/11/07 06:42:03;;;;;;;17.77;14.40;;;;;;;6.53;100.00;100466.28;1807475;76;21031;-61
2022/11/07 06:44:30;;;;;;;17.50;14.55;;;;;;;6.68;100.00;100474.36;1790938;76;21162;-60
2022/11/07 06:46:57;;;;;;;18.85;14.07;;;;;;;6.80;100.00;100466.36;1794147;76;21605;-62
2022/11/07 06:49:23;;;;;;;18.60;13.45;;;;;;;6.93;100.00;100465.72;1826137;76;21553;-62
2022/11/07 06:51:50;;;;;;;16.53;14.03;;;;;;;7.08;100.00;100460.70;1813208;76;21840;-62
2022/11/07 06:54:17;;;;;;;18.20;13.00;;;;;;;7.16;100.00;100458.84;1814628;76;20957;-61
2022/11/07 06:56:44;;;;;;;17.23;14.30;;;;;;;7.29;100.00;100462.99;1813035;76;21440;-61
2022/11/07 06:59:10;;;;;;;15.25;13.65;;;;;;;7.34;100.00;100461.14;1823265;76;21604;-62
2022/11/07 07:01:37;;;;;;;20.90;14.30;;;;;;;7.44;100.00;100459.69;1817004;76;21552;-61
2022/11/07 07:04:05;;;;;;;15.48;13.70;;;;;;;7.65;100.00;100457.14;1796045;76;21502;-62
2022/11/07 07:06:32;;;;;;;15.72;12.98;;;;;;;7.72;100.00;100457.03;1802168;76;21653;-62
2022/11/07 07:08:59;;;;;;;14.95;13.38;;;;;;;7.75;100.00;100444.31;1801151;76;21424;-62
2022/11/07 07:11:26;;;;;;;15.40;13.55;;;;;;;7.81;100.00;100438.95;1811437;77;21488;-62
2022/11/07 07:13:55;;;;;;;17.77;13.40;;;;;;;7.87;100.00;100441.91;1812254;77;21470;-61
2022/11/07 07:16:23;;;;;;;16.00;13.62;;;;;;;7.93;100.00;100443.09;1805086;76;22095;-62
2022/11/07 07:18:49;;;;;;;15.35;13.43;;;;;;;7.98;100.00;100438.18;1805078;77;20965;-61
2022/11/07 07:21:16;;;;;;;17.25;14.73;;;;;;;8.02;100.00;100435.06;1810122;76;21000;-61
2022/11/07 07:23:43;;;;;;;16.97;14.33;;;;;;;8.05;100.00;100441.56;1817256;76;21512;-62
2022/11/07 07:26:13;;;;;;;15.25;13.08;;;;;;;8.09;100.00;100443.22;1795106;77;21613;-63
2022/11/07 07:28:40;;;;;;;16.30;14.47;;;;;;;8.12;100.00;100439.23;1810067;76;22109;-60
2022/11/07 07:31:25;;;;;;;18.75;14.65;;;;;;;8.13;100.00;100445.33;1795672;77;21484;-63
2022/11/07 07:33:52;;;;;;;15.38;13.10;;;;;;;8.17;100.00;100448.30;1785030;77;21109;-63
2022/11/07 07:36:20;;;;;;;15.10;12.75;;;;;;;8.15;100.00;100441.78;1803287;76;20958;-62
2022/11/07 07:38:47;;;;;;;14.58;12.90;;;;;;;8.16;100.00;100437.42;1818715;76;21469;-63
2022/11/07 07:41:13;;;;;;;17.85;13.05;;;;;;;8.14;100.00;100441.38;1799516;76;21840;-63
2022/11/07 07:43:40;;;;;;;16.05;12.43;;;;;;;8.18;100.00;100447.42;1791348;76;21667;-64
2022/11/07 07:46:07;;;;;;;15.15;13.13;;;;;;;8.20;100.00;100449.56;1825743;76;21534;-66
2022/11/07 07:48:34;;;;;;;17.23;12.93;;;;;;;8.18;100.00;100448.73;1814348;76;21640;-63
2022/11/07 07:51:00;;;;;;;13.45;11.83;;;;;;;8.16;100.00;100444.83;1811398;76;21617;-67
2022/11/07 07:53:28;;;;;;;;;;;;;;;8.15;100.00;100443.09;1808578;77;21476;-66
2022/11/07 07:55:59;;;;;;;14.13;12.05;;;;;;;8.02;100.00;100438.98;1800590;76;20422;-66
2022/11/07 07:58:26;;;;;;;14.50;12.60;;;;;;;8.08;100.00;100438.89;1818251;76;20944;-68
2022/11/07 08:00:56;;;;;;;15.90;12.75;;;;;;;8.10;100.00;100444.08;1723086;78;21517;-62
2022/11/07 08:03:23;;;;;;;13.80;12.30;;;;;;;8.10;100.00;100437.10;1806327;76;21575;-61
2022/11/07 08:05:54;;;;;;;15.00;13.30;;;;;;;8.12;100.00;100441.01;1824448;76;21747;-62
2022/11/07 08:08:22;;;;;;;14.47;12.93;;;;;;;8.08;100.00;100438.00;1815820;76;21623;-61
2022/11/07 08:10:53;;;;;;;17.75;12.93;;;;;;;8.06;100.00;100443.30;1785178;76;20995;-61
2022/11/07 08:13:17;;;;;;;18.15;13.58;;;;;;;8.07;100.00;100448.94;1791629;77;21112;-62
2022/11/07 08:15:43;;;;;;;14.58;13.05;;;;;;;8.05;100.00;100443.33;1819697;77;21688;-62
2022/11/07 08:18:10;;;;;;;14.93;12.35;;;;;;;8.08;100.00;100444.13;1812631;76;21916;-61
2022/11/07 08:20:38;;;;;;;17.35;12.37;;;;;;;8.06;100.00;100451.16;1807922;76;21484;-63
2022/11/07 08:23:07;;;;;;;14.10;12.30;;;;;;;8.09;100.00;100447.60;1802089;76;21527;-66
2022/11/07 08:25:34;;;;;;;13.65;12.10;;;;;;;8.07;100.00;100446.31;1812950;76;21609;-62
2022/11/07 08:28:00;;;;;;;15.45;12.18;;;;;;;8.08;100.00;100462.47;1803686;76;21222;-62
2022/11/07 08:30:27;;;;;;;13.72;12.20;;;;;;;8.10;100.00;100458.48;1831344;77;22110;-61
2022/11/07 08:33:01;;;;;;;13.30;11.73;;;;;;;8.15;100.00;100460.57;1795460;76;21083;-62
2022/11/07 08:35:29;;;;;;;14.20;12.53;;;;;;;8.12;100.00;100460.20;1800973;77;20939;-61
2022/11/07 08:37:58;;;;;;;13.13;11.83;;;;;;;8.15;100.00;100464.50;1793169;76;20991;-64
2022/11/07 08:40:25;;;;;;;;;;;;;;;8.21;100.00;100467.45;1791565;76;21593;-63
2022/11/07 08:42:51;;;;;;;13.38;11.22;;;;;;;8.13;100.00;100467.59;1811812;76;21855;-60
2022/11/07 08:45:18;;;;;;;13.95;11.97;;;;;;;8.13;100.00;100464.52;1781809;77;21595;-62
2022/11/07 08:47:45;;;;;;;13.47;12.17;;;;;;;8.13;100.00;100469.77;1806676;76;21657;-61
2022/11/07 08:50:11;;;;;;;13.10;11.65;;;;;;;8.10;100.00;100466.34;1770943;79;21035;-62
2022/11/07 08:52:39;;;;;;;13.67;12.23;;;;;;;8.10;100.00;100471.16;1804581;76;21515;-61
2022/11/07 08:55:06;;;;;;;13.20;11.80;;;;;;;8.10;100.00;100467.64;1776473;77;21834;-61
2022/11/07 08:57:34;;;;;;;15.13;13.20;;;;;;;8.12;100.00;100465.44;1785934;77;21574;-60
2022/11/07 09:00:02;;;;;;;14.58;12.98;;;;;;;8.14;100.00;100458.86;1800101;75;21488;-61
2022/11/07 09:02:29;;;;;;;;;;;;;;;8.10;100.00;100459.37;1800148;77;21548;-62
2022/11/07 09:04:55;;;;;;;14.98;11.95;;;;;;;7.95;100.00;100451.81;1831389;76;20164;-61
2022/11/07 09:07:22;;;;;;;15.32;12.93;;;;;;;7.96;100.00;100454.83;1815572;76;21801;-61
2022/11/07 09:09:49;;;;;;;16.00;13.58;;;;;;;7.95;100.00;100455.73;1795923;76;22001;-62
2022/11/07 09:12:16;;;;;;;15.65;12.85;;;;;;;7.96;100.00;100460.92;1803448;76;21549;-61
2022/11/07 09:14:43;;;;;;;15.40;12.65;;;;;;;7.96;100.00;100455.69;1823185;76;21462;-62
2022/11/07 09:17:10;;;;;;;13.53;11.75;;;;;;;8.00;100.00;100452.56;1807694;77;21562;-60
2022/11/07 09:19:38;;;;;;;;;;;;;;;8.03;100.00;100445.97;1814632;76;21793;-61
2022/11/07 09:22:04;;;;;;;12.75;11.45;;;;;;;7.95;100.00;100439.57;1786754;76;20410;-61
2022/11/07 09:24:31;;;;;;;14.95;12.65;;;;;;;7.98;100.00;100437.33;1808420;76;21503;-60
2022/11/07 09:26:59;;;;;;;14.60;12.37;;;;;;;7.97;100.00;100433.00;1810929;76;21509;-61
2022/11/07 09:29:26;;;;;;;15.83;12.80;;;;;;;8.02;100.00;100433.75;1796809;77;21421;-61
2022/11/07 09:31:52;;;;;;;16.42;13.83;;;;;;;8.04;100.00;100429.80;1820252;76;21838;-61
2022/11/07 09:34:19;;;;;;;16.75;13.30;;;;;;;8.06;100.00;100424.08;1808842;76;21419;-61
2022/11/07 09:36:46;;;;;;;17.70;14.30;;;;;;;8.07;100.00;100429.75;1814441;76;20993;-62
2022/11/07 09:39:14;;;;;;;15.38;13.65;;;;;;;8.12;100.00;100430.53;1792006;76;22163;-62
2022/11/07 09:42:07;;;;;;;14.63;13.10;;;;;;;8.14;100.00;100416.95;1823938;76;21551;-61
2022/11/07 09:44:59;;;;;;;14.93;12.88;;;;;;;8.14;100.00;100411.71;1726905;79;21812;-67
2022/11/07 09:47:46;;;;;;;15.43;13.45;;;;;;;8.14;100.00;100410.41;1741789;79;21777;-61
2022/11/07 09:50:30;;;;;;;14.50;12.45;;;;;;;8.16;100.00;100406.84;1729130;81;21607;-61
2022/11/07 09:53:09;;;;;;;14.73;12.85;;;;;;;8.21;100.00;100400.19;1739456;81;21542;-62
2022/11/07 09:55:39;;;;;;;14.63;12.65;;;;;;;8.20;100.00;100394.55;1750375;79;21413;-61
2022/11/07 09:58:33;;;;;;;14.35;12.85;;;;;;;8.22;100.00;100395.38;1769792;77;21809;-62
2022/11/07 10:01:06;;;;;;;13.55;11.97;;;;;;;8.22;100.00;100390.59;1795370;75;21109;-62
2022/11/07 14:32:27;;;;;;;12.63;11.22;;;;;;;6.30;100.00;100265.47;1815131;75;21483;-63
2022/11/07 14:34:54;;;;;;;14.60;10.78;;;;;;;6.46;100.00;100257.82;1814178;76;21486;-63
2022/11/07 14:37:24;;;;;;;12.25;9.98;;;;;;;6.57;100.00;100257.63;1810202;77;21420;-63
2022/11/07 14:39:51;;;;;;;14.33;10.95;;;;;;;6.68;100.00;100261.37;1803884;76;21697;-64
2022/11/07 14:42:21;;;;;;;12.43;10.75;;;;;;;6.77;100.00;100258.15;1779355;77;21557;-63
2022/11/07 14:44:52;;;;;;;12.45;10.63;;;;;;;6.87;100.00;100261.91;1795445;77;21000;-63
2022/11/07 14:47:23;;;;;;;12.18;10.60;;;;;;;6.90;100.00;100258.80;1797045;77;22113;-66
2022/11/07 14:49:50;;;;;;;11.28;10.10;;;;;;;6.95;100.00;100256.97;1810425;77;21450;-66
2022/11/07 14:52:26;;;;;;;11.40;9.98;;;;;;;7.01;100.00;100258.61;1807182;77;21479;-65
2022/11/07 14:55:13;;;;;;;10.82;9.83;;;;;;;7.04;100.00;100254.62;1817874;76;21510;-63
2022/11/07 14:57:39;;;;;;;11.80;9.78;;;;;;;7.08;100.00;100260.66;1753459;78;21615;-61
2022/11/07 15:00:09;;;;;;;11.77;9.97;;;;;;;7.06;100.00;100257.20;1728032;80;21941;-62
2022/11/07 15:02:36;;;;;;;11.80;9.63;;;;;;;7.05;100.00;100251.13;1746258;80;21860;-61
2022/11/07 15:05:03;;;;;;;10.65;9.53;;;;;;;7.07;100.00;100252.41;1737496;80;21001;-60
2022/11/07 15:07:33;;;;;;;11.15;9.93;;;;;;;7.06;100.00;100255.91;1736635;80;20986;-61
2022/11/07 15:10:24;;;;;;;12.90;9.35;;;;;;;7.01;100.00;100264.70;1772706;78;21467;-61
2022/11/07 15:12:55;;;;;;;10.15;9.00;;;;;;;6.98;100.00;100259.97;1771282;79;21869;-60
2022/11/07 15:15:31;;;;;;;10.30;9.25;;;;;;;6.95;100.00;100262.62;1729607;80;21427;-62
2022/11/07 15:18:01;;;;;;;12.43;9.73;;;;;;;6.95;100.00;100262.20;1766901;79;21622;-62
2022/11/07 15:20:35;;;;;;;11.20;10.00;;;;;;;6.94;100.00;100260.47;1809826;77;21672;-61
2022/11/07 15:23:13;;;;;;;13.18;10.15;;;;;;;6.94;100.00;100263.53;1816408;77;21496;-61
2022/11/07 15:25:44;;;;;;;10.90;9.75;;;;;;;6.93;100.00;100261.80;1788295;77;21932;-62
2022/11/07 15:28:25;;;;;;;11.05;9.35;;;;;;;6.92;100.00;100264.86;1817647;77;21575;-61
2022/11/07 15:30:54;;;;;;;10.53;9.28;;;;;;;6.96;100.00;100270.90;1754367;78;21525;-62
2022/11/07 15:33:22;;;;;;;11.70;9.70;;;;;;;6.98;100.00;100262.12;1823345;76;21530;-62
2022/11/07 15:35:56;;;;;;;11.28;9.63;;;;;;;7.00;100.00;100262.95;1807383;77;21558;-62
2022/11/07 15:38:26;;;;;;;10.70;9.60;;;;;;;7.00;100.00;100260.34;1819965;76;21464;-61
2022/11/07 15:40:53;;;;;;;11.57;9.30;;;;;;;7.00;100.00;100268.19;1795454;76;21515;-61
2022/11/07 15:43:20;;;;;;;11.03;9.48;;;;;;;7.01;100.00;100271.23;1779303;77;21444;-60
2022/11/07 15:45:48;;;;;;;13.48;10.68;;;;;;;7.05;100.00;100277.73;1812790;77;21469;-61
2022/11/07 15:48:21;;;;;;;12.93;10.95;;;;;;;7.09;100.00;100278.94;1805570;77;21522;-61
2022/11/07 15:50:48;;;;;;;11.78;10.45;;;;;;;7.11;100.00;100277.61;1817802;76;21523;-62
2022/11/07 15:53:24;;;;;;;15.98;10.30;;;;;;;7.15;100.00;100280.58;1815486;76;21006;-62
2022/11/07 15:55:54;;;;;;;14.87;11.33;;;;;;;7.17;100.00;100275.72;1820407;77;21608;-61
2022/11/07 15:58:23;;;;;;;11.45;10.25;;;;;;;7.23;100.00;100280.43;1817265;77;20975;-61
2022/11/07 16:00:51;;;;;;;13.03;10.50;;;;;;;7.26;100.00;100279.08;1807626;76;21598;-61
2022/11/07 16:03:20;;;;;;;14.47;10.70;;;;;;;7.28;100.00;100282.06;1772189;77;22085;-61
2022/11/07 16:05:48;;;;;;;12.85;11.15;;;;;;;7.29;100.00;100275.07;1797368;77;20959;-61
2022/11/07 16:08:21;;;;;;;12.25;10.55;;;;;;;7.28;100.00;100272.91;1804168;76;21015;-61
2022/11/07 16:10:57;;;;;;;13.50;10.78;;;;;;;7.25;100.00;100272.96;1790927;76;21465;-62
2022/11/07 16:13:24;;;;;;;12.60;10.60;;;;;;;7.23;100.00;100270.83;1786574;77;20971;-61
2022/11/07 16:15:54;;;;;;;13.78;10.45;;;;;;;7.20;100.00;100273.06;1786353;77;21959;-61
2022/11/07 16:18:22;;;;;;;13.68;10.68;;;;;;;7.20;100.00;100275.67;1787698;76;21420;-61
2022/11/07 16:20:49;;;;;;;12.03;10.27;;;;;;;7.20;100.00;100270.45;1788523;77;22068;-60
2022/11/07 16:23:17;;;;;;;12.68;10.08;;;;;;;7.21;100.00;100273.91;1781438;77;21677;-61
2022/11/07 16:25:48;;;;;;;12.28;11.05;;;;;;;7.24;100.00;100271.70;1788558;77;21697;-61
2022/11/07 16:28:25;;;;;;;12.30;10.98;;;;;;;7.26;100.00;100264.69;1812853;76;21839;-62
2022/11/07 16:30:53;;;;;;;16.97;12.07;;;;;;;7.29;100.00;100275.95;1824724;75;22273;-62
2022/11/07 16:33:19;;;;;;;14.43;11.30;;;;;;;7.31;100.00;100271.98;1800306;77;21491;-63
2022/11/07 16:35:49;;;;;;;13.10;10.23;;;;;;;7.36;100.00;100274.06;1810604;77;21684;-62
2022/11/07 16:38:17;;;;;;;13.00;10.20;;;;;;;7.40;100.00;100277.92;1798843;77;21677;-63
2022/11/07 16:40:44;;;;;;;12.98;10.90;;;;;;;7.44;100.00;100269.98;1822898;77;22007;-64
2022/11/07 16:43:10;;;;;;;12.78;10.35;;;;;;;7.48;100.00;100269.91;1821972;75;21606;-63
2022/11/07 16:45:40;;;;;;;13.22;11.10;;;;;;;7.51;100.00;100271.59;1778864;77;21444;-63
2022/11/07 16:48:11;;;;;;;16.12;13.88;;;;;;;7.52;100.00;100274.64;1799500;77;21461;-63
2022/11/07 16:50:37;;;;;;;15.65;12.93;;;;;;;7.52;100.00;100276.80;1773019;77;21483;-64
2022/11/07 16:53:05;;;;;;;15.28;13.28;;;;;;;7.49;100.00;100270.31;1806853;77;21767;-64
2022/11/07 16:55:31;;;;;;;18.70;12.10;;;;;;;7.50;100.00;100267.27;1811641;76;26911;-65
2022/11/07 16:57:58;;;;;;;14.15;11.85;;;;;;;7.50;100.00;100268.13;1803500;77;21410;-64
2022/11/07 17:00:26;;;;;;;14.45;12.68;;;;;;;7.51;100.00;100260.67;1783544;77;22124;-64
2022/11/07 17:02:52;;;;;;;16.02;11.85;;;;;;;7.54;100.00;100262.39;1814748;76;21578;-65
2022/11/07 17:05:19;;;;;;;14.85;12.25;;;;;;;7.56;100.00;100257.98;1785288;77;21618;-64
2022/11/07 17:07:47;;;;;;;18.52;14.98;;;;;;;7.57;100.00;100254.45;1802837;77;21545;-64
2022/11/07 17:10:15;;;;;;;14.20;12.70;;;;;;;7.57;100.00;100251.84;1792992;77;20987;-64
2022/11/07 17:12:42;;;;;;;14.28;12.68;;;;;;;7.56;100.00;100255.37;1821069;76;21528;-64
2022/11/07 17:15:09;;;;;;;14.95;12.15;;;;;;;7.55;100.00;100258.44;1812589;76;21411;-64
2022/11/07 17:17:37;;;;;;;19.50;14.40;;;;;;;7.54;100.00;100254.08;1734381;79;21764;-65
2022/11/07 17:20:09;;;;;;;15.45;12.88;;;;;;;7.55;100.00;100251.01;1780938;77;21610;-63
2022/11/07 17:22:36;;;;;;;15.32;12.15;;;;;;;7.54;100.00;100248.84;1814824;76;21579;-63
2022/11/07 17:25:04;;;;;;;14.33;12.10;;;;;;;7.53;100.00;100251.49;1800503;75;21479;-65
2022/11/07 17:27:32;;;;;;;16.15;12.37;;;;;;;7.50;100.00;100246.34;1787058;76;21565;-64
2022/11/07 17:29:59;;;;;;;13.13;11.83;;;;;;;7.49;100.00;100248.08;1819497;75;21738;-63
2022/11/07 17:32:26;;;;;;;12.40;11.03;;;;;;;7.47;100.00;100237.23;1819150;77;21527;-63
2022/11/07 17:34:53;;;;;;;13.47;11.13;;;;;;;7.45;100.00;100237.72;1793126;77;21500;-63
2022/11/07 17:37:19;;;;;;;15.58;12.25;;;;;;;7.45;100.00;100237.72;1809955;77;21437;-63
2022/11/07 17:39:47;;;;;;;21.00;13.38;;;;;;;7.45;100.00;100245.11;1776556;77;21556;-65
2022/11/07 17:42:14;;;;;;;16.40;12.82;;;;;;;7.46;100.00;100245.96;1794166;76;21892;-64
2022/11/07 17:44:40;;;;;;;15.18;12.70;;;;;;;7.43;100.00;100239.50;1818744;76;21509;-63
2022/11/07 17:47:13;;;;;;;21.87;13.48;;;;;;;7.43;100.00;100236.89;1817760;75;21104;-63
2022/11/07 17:49:39;;;;;;;20.97;16.32;;;;;;;7.41;100.00;100234.30;1749291;80;20978;-64
2022/11/07 17:52:06;;;;;;;19.70;15.38;;;;;;;7.39;100.00;100231.70;1791623;76;21507;-64
2022/11/07 17:54:34;;;;;;;15.65;11.95;;;;;;;7.33;100.00;100227.91;1805151;76;21936;-64
2022/11/07 17:57:02;;;;;;;13.65;11.60;;;;;;;7.29;100.00;100229.30;1815965;76;21459;-64
2022/11/07 17:59:29;;;;;;;15.18;12.63;;;;;;;7.19;100.00;100223.39;1818638;76;20990;-64
2022/11/07 22:08:57;;;;;;;27.20;19.07;;;;;;;3.19;100.00;100270.83;1818690;76;26905;-64
2022/11/07 22:11:24;;;;;;;22.17;16.90;;;;;;;3.50;100.00;100276.77;1781986;78;20929;-62
2022/11/07 22:13:52;;;;;;;23.42;17.30;;;;;;;3.68;100.00;100270.20;1791176;78;21025;-63
2022/11/07 22:20:20;;;;;;;21.95;16.50;;;;;;;3.99;100.00;100267.86;1758432;80;21068;-61
2022/11/07 22:22:47;;;;;;;21.45;16.73;;;;;;;4.09;100.00;100258.70;1751297;80;21679;-62
2022/11/07 22:25:14;;;;;;;21.57;16.85;;;;;;;4.17;100.00;100265.15;1750959;79;21682;-62
2022/11/07 22:27:40;;;;;;;25.52;19.07;;;;;;;4.28;100.00;100263.78;1747467;80;21936;-61
2022/11/07 22:30:09;;;;;;;26.13;19.20;;;;;;;4.38;100.00;100259.37;1749874;80;21427;-63
2022/11/07 22:32:36;;;;;;;21.97;16.85;;;;;;;4.46;100.00;100262.34;1751945;80;21842;-63
2022/11/07 22:35:04;;;;;;;22.33;17.77;;;;;;;4.54;100.00;100266.19;1774359;78;21443;-62
2022/11/07 22:37:31;;;;;;;23.00;16.97;;;;;;;4.60;100.00;100253.11;1787574;79;21626;-64
2022/11/07 22:39:58;;;;;;;23.35;17.15;;;;;;;4.67;100.00;100249.58;1774092;78;21976;-65
2022/11/07 22:42:24;;;;;;;19.10;15.75;;;;;;;4.73;100.00;100248.66;1767998;79;21087;-63
2022/11/07 22:44:52;;;;;;;20.45;16.40;;;;;;;4.78;100.00;100243.39;1724351;78;21646;-63
2022/11/07 22:47:19;;;;;;;22.82;16.57;;;;;;;4.81;100.00;100244.67;1777976;78;21560;-63
2022/11/07 22:49:46;;;;;;;22.02;15.25;;;;;;;4.86;100.00;100241.59;1782643;78;21704;-62
2022/11/07 22:52:13;;;;;;;19.82;15.30;;;;;;;4.93;100.00;100238.02;1786809;78;21901;-65